Pegasus J — V2CF5 — position and weather

sailwx.info

Track history (hours):
 
Tides and Currents Weather Stations Pressure Air Temp Water Temp Dewpoint Dewpoint Depression Visibility Wind Speed Wind Dir Waves Ship Positions

Pegasus J

Last reported at 2018-Feb-18 19:30 UTC. Time now 2018-Feb-22 01:23 UTC.
Position N 25°28' W 079°41'.

Length 140 m; draft 6.9 m.

Type: Ship. MMSI: 304122000.

Date/timePositionNaut miles runAvg speedWind from/ knotsBaromVisibWave heightAir tempDewpointWater temp
2018-Feb-18 19:30N 25°28' W 079°41'713.6
2018-Feb-18 19:00N 25°35' W 079°41'613.0
2018-Feb-18 18:30N 25°42' W 079°41'611.9
2018-Feb-18 18:00N 25°47' W 079°42'611.5
2018-Feb-18 17:30N 25°52' W 079°45'613.0
2018-Feb-18 17:00N 25°56' W 079°51'713.0
2018-Feb-18 16:30N 26°00' W 079°57'713.4
2018-Feb-18 16:00N 26°04' W 080°03'4 7.4
2018-Feb-18 15:30N 26°05' W 080°07'1 2.1
2018-Feb-18 14:59N 26°04' W 080°07'0 0.0
2018-Feb-18 14:29N 26°04' W 080°07'0 0.0
2018-Feb-18 13:59N 26°04' W 080°07'0 0.0
2018-Feb-18 13:29N 26°04' W 080°07'0 0.0
2018-Feb-18 12:59N 26°04' W 080°07'0 0.0
2018-Feb-18 12:29N 26°04' W 080°07'0 0.0
2018-Feb-18 11:59N 26°04' W 080°07'0 0.0
2018-Feb-18 11:29N 26°04' W 080°07'0 0.0
2018-Feb-18 10:59N 26°04' W 080°07'0 0.0
2018-Feb-18 10:29N 26°04' W 080°07'0 0.0
2018-Feb-18 09:59N 26°04' W 080°07'0 0.0
2018-Feb-18 09:29N 26°04' W 080°07'0 0.0
2018-Feb-18 08:59N 26°04' W 080°07'0 0.0
2018-Feb-18 08:29N 26°04' W 080°07'0 0.0
2018-Feb-18 07:59N 26°04' W 080°07'0 0.0
2018-Feb-18 07:29N 26°04' W 080°07'0 0.0
2018-Feb-18 06:59N 26°04' W 080°07'0 0.0
2018-Feb-18 06:29N 26°04' W 080°07'0 0.0
2018-Feb-18 05:59N 26°04' W 080°07'0 0.0
2018-Feb-18 05:29N 26°04' W 080°07'0 0.0
2018-Feb-18 05:00N 26°04' W 080°07'0 0.3
2018-Feb-18 04:30N 26°04' W 080°07'0 0.0
2018-Feb-18 03:58N 26°04' W 080°07'0 0.0
2018-Feb-18 03:28N 26°04' W 080°07'0 0.0
2018-Feb-18 02:58N 26°04' W 080°07'0 0.0
2018-Feb-18 02:28N 26°04' W 080°07'0 0.0
2018-Feb-18 01:58N 26°04' W 080°07'0 0.0
2018-Feb-18 01:25N 26°04' W 080°07'0 0.0
2018-Feb-18 00:58N 26°04' W 080°07'0 0.0
2018-Feb-18 00:28N 26°04' W 080°07'0 0.1
2018-Feb-18 00:01N 26°04' W 080°07'2 3.6
2018-Feb-17 23:30N 26°06' W 080°06'4 7.4
2018-Feb-17 23:00N 26°07' W 080°02'2 4.2
2018-Feb-17 22:30N 26°08' W 079°60'2 4.6
2018-Feb-17 22:01N 26°09' W 079°58'2 4.9
2018-Feb-17 21:30N 26°11' W 079°57'2 4.7
2018-Feb-17 21:00N 26°14' W 079°56'3 5.4
2018-Feb-17 20:30N 26°16' W 079°55'3 5.2
2018-Feb-17 20:00N 26°19' W 079°54'2 4.2
2018-Feb-17 19:30N 26°21' W 079°53'2 4.8
2018-Feb-17 19:00N 26°23' W 079°52'3 6.3
2018-Feb-17 18:28N 26°26' W 079°50'1713.0
2018-Feb-17 17:10N 26°43' W 079°48'313.0
2018-Feb-17 16:56N 26°46' W 079°48'613.0
2018-Feb-17 16:30N 26°51' W 079°48'713.2
2018-Feb-17 15:57N 26°59' W 079°48'301 6.3
2018-Feb-15 16:24N 31°60' W 079°35'15313.4
2018-Feb-15 04:59N 34°09' W 077°57'2 2.0
2018-Feb-15 03:52N 34°12' W 077°57'0 0.0
2018-Feb-15 03:28N 34°12' W 077°57'0 0.0
2018-Feb-15 02:58N 34°12' W 077°57'0 0.0
2018-Feb-15 02:13N 34°12' W 077°57'0 0.0
2018-Feb-15 01:58N 34°12' W 077°57'0 0.0
2018-Feb-15 01:28N 34°12' W 077°57'0 0.0
2018-Feb-15 00:55N 34°12' W 077°57'0 0.0
2018-Feb-15 00:28N 34°12' W 077°57'1 1.1
2018-Feb-15 00:01N 34°11' W 077°57'44512.0
2018-Feb-13 10:59N 26°56' W 079°48'2617.2
2018-Feb-13 09:29N 26°30' W 079°50'816.8
2018-Feb-13 09:00N 26°23' W 079°54'816.9
2018-Feb-13 08:30N 26°16' W 079°58'817.0
2018-Feb-13 08:00N 26°08' W 080°03'5 9.2
2018-Feb-13 07:30N 26°05' W 080°07'1 2.5
2018-Feb-13 07:00N 26°04' W 080°07'0 0.0
2018-Feb-13 06:30N 26°04' W 080°07'0 0.0
2018-Feb-13 06:00N 26°04' W 080°07'0 0.0
2018-Feb-13 05:30N 26°04' W 080°07'0 0.0
2018-Feb-13 05:00N 26°04' W 080°07'0 0.0
2018-Feb-13 04:30N 26°04' W 080°07'0 0.0
2018-Feb-13 04:00N 26°04' W 080°07'0 0.0
2018-Feb-13 03:30N 26°04' W 080°07'0 0.0
2018-Feb-13 03:00N 26°04' W 080°07'0 0.0
2018-Feb-13 02:30N 26°04' W 080°07'0 0.0
2018-Feb-13 02:00N 26°04' W 080°07'0 0.0
2018-Feb-13 01:30N 26°04' W 080°07'0 0.0
2018-Feb-13 01:00N 26°04' W 080°07'0 0.0
2018-Feb-13 00:30N 26°04' W 080°07'0 0.0
2018-Feb-13 00:00N 26°04' W 080°07'0 0.0
2018-Feb-12 23:30N 26°04' W 080°07'0 0.0
2018-Feb-12 23:00N 26°04' W 080°07'0 0.0
2018-Feb-12 22:30N 26°04' W 080°07'2 4.0
2018-Feb-12 22:00N 26°06' W 080°05'510.7
2018-Feb-12 21:30N 26°02' W 080°01'714.0
2018-Feb-12 21:00N 25°55' W 080°00'714.4
2018-Feb-12 20:30N 25°48' W 080°00'714.3
2018-Feb-12 20:00N 25°41' W 080°00'714.9
2018-Feb-12 19:30N 25°34' W 079°60'714.6
2018-Feb-12 19:00N 25°26' W 079°60'  
Track history (hours):
 
Tides and Currents Weather Stations Pressure Air Temp Water Temp Dewpoint Dewpoint Depression Visibility Wind Speed Wind Dir Waves Ship Positions

Pegasus J

Last reported at 2018-Feb-18 19:30 UTC. Time now 2018-Feb-22 01:23 UTC.
Position N 25°28' W 079°41'.

Length 140 m; draft 6.9 m.

Type: Ship. MMSI: 304122000.

Date/timePositionNaut miles runAvg speedWind from/ knotsBaromVisibWave heightAir tempDewpointWater temp
2018-Feb-18 19:30N 25°28' W 079°41'713.6
2018-Feb-18 19:00N 25°35' W 079°41'613.0
2018-Feb-18 18:30N 25°42' W 079°41'611.9
2018-Feb-18 18:00N 25°47' W 079°42'611.5
2018-Feb-18 17:30N 25°52' W 079°45'613.0
2018-Feb-18 17:00N 25°56' W 079°51'713.0
2018-Feb-18 16:30N 26°00' W 079°57'713.4
2018-Feb-18 16:00N 26°04' W 080°03'4 7.4
2018-Feb-18 15:30N 26°05' W 080°07'1 2.1
2018-Feb-18 14:59N 26°04' W 080°07'0 0.0
2018-Feb-18 14:29N 26°04' W 080°07'0 0.0
2018-Feb-18 13:59N 26°04' W 080°07'0 0.0
2018-Feb-18 13:29N 26°04' W 080°07'0 0.0
2018-Feb-18 12:59N 26°04' W 080°07'0 0.0
2018-Feb-18 12:29N 26°04' W 080°07'0 0.0
2018-Feb-18 11:59N 26°04' W 080°07'0 0.0
2018-Feb-18 11:29N 26°04' W 080°07'0 0.0
2018-Feb-18 10:59N 26°04' W 080°07'0 0.0
2018-Feb-18 10:29N 26°04' W 080°07'0 0.0
2018-Feb-18 09:59N 26°04' W 080°07'0 0.0
2018-Feb-18 09:29N 26°04' W 080°07'0 0.0
2018-Feb-18 08:59N 26°04' W 080°07'0 0.0
2018-Feb-18 08:29N 26°04' W 080°07'0 0.0
2018-Feb-18 07:59N 26°04' W 080°07'0 0.0
2018-Feb-18 07:29N 26°04' W 080°07'0 0.0
2018-Feb-18 06:59N 26°04' W 080°07'0 0.0
2018-Feb-18 06:29N 26°04' W 080°07'0 0.0
2018-Feb-18 05:59N 26°04' W 080°07'0 0.0
2018-Feb-18 05:29N 26°04' W 080°07'0 0.0
2018-Feb-18 05:00N 26°04' W 080°07'0 0.3
2018-Feb-18 04:30N 26°04' W 080°07'0 0.0
2018-Feb-18 03:58N 26°04' W 080°07'0 0.0
2018-Feb-18 03:28N 26°04' W 080°07'0 0.0
2018-Feb-18 02:58N 26°04' W 080°07'0 0.0
2018-Feb-18 02:28N 26°04' W 080°07'0 0.0
2018-Feb-18 01:58N 26°04' W 080°07'0 0.0
2018-Feb-18 01:25N 26°04' W 080°07'0 0.0
2018-Feb-18 00:58N 26°04' W 080°07'0 0.0
2018-Feb-18 00:28N 26°04' W 080°07'0 0.1
2018-Feb-18 00:01N 26°04' W 080°07'2 3.6
2018-Feb-17 23:30N 26°06' W 080°06'4 7.4
2018-Feb-17 23:00N 26°07' W 080°02'2 4.2
2018-Feb-17 22:30N 26°08' W 079°60'2 4.6
2018-Feb-17 22:01N 26°09' W 079°58'2 4.9
2018-Feb-17 21:30N 26°11' W 079°57'2 4.7
2018-Feb-17 21:00N 26°14' W 079°56'3 5.4
2018-Feb-17 20:30N 26°16' W 079°55'3 5.2
2018-Feb-17 20:00N 26°19' W 079°54'2 4.2
2018-Feb-17 19:30N 26°21' W 079°53'2 4.8
2018-Feb-17 19:00N 26°23' W 079°52'3 6.3
2018-Feb-17 18:28N 26°26' W 079°50'1713.0
2018-Feb-17 17:10N 26°43' W 079°48'313.0
2018-Feb-17 16:56N 26°46' W 079°48'613.0
2018-Feb-17 16:30N 26°51' W 079°48'713.2
2018-Feb-17 15:57N 26°59' W 079°48'301 6.3
2018-Feb-15 16:24N 31°60' W 079°35'15313.4
2018-Feb-15 04:59N 34°09' W 077°57'2 2.0
2018-Feb-15 03:52N 34°12' W 077°57'0 0.0
2018-Feb-15 03:28N 34°12' W 077°57'0 0.0
2018-Feb-15 02:58N 34°12' W 077°57'0 0.0
2018-Feb-15 02:13N 34°12' W 077°57'0 0.0
2018-Feb-15 01:58N 34°12' W 077°57'0 0.0
2018-Feb-15 01:28N 34°12' W 077°57'0 0.0
2018-Feb-15 00:55N 34°12' W 077°57'0 0.0
2018-Feb-15 00:28N 34°12' W 077°57'1 1.1
2018-Feb-15 00:01N 34°11' W 077°57'44512.0
2018-Feb-13 10:59N 26°56' W 079°48'2617.2
2018-Feb-13 09:29N 26°30' W 079°50'816.8
2018-Feb-13 09:00N 26°23' W 079°54'816.9
2018-Feb-13 08:30N 26°16' W 079°58'817.0
2018-Feb-13 08:00N 26°08' W 080°03'5 9.2
2018-Feb-13 07:30N 26°05' W 080°07'1 2.5
2018-Feb-13 07:00N 26°04' W 080°07'0 0.0
2018-Feb-13 06:30N 26°04' W 080°07'0 0.0
2018-Feb-13 06:00N 26°04' W 080°07'0 0.0
2018-Feb-13 05:30N 26°04' W 080°07'0 0.0
2018-Feb-13 05:00N 26°04' W 080°07'0 0.0
2018-Feb-13 04:30N 26°04' W 080°07'0 0.0
2018-Feb-13 04:00N 26°04' W 080°07'0 0.0
2018-Feb-13 03:30N 26°04' W 080°07'0 0.0
2018-Feb-13 03:00N 26°04' W 080°07'0 0.0
2018-Feb-13 02:30N 26°04' W 080°07'0 0.0
2018-Feb-13 02:00N 26°04' W 080°07'0 0.0
2018-Feb-13 01:30N 26°04' W 080°07'0 0.0
2018-Feb-13 01:00N 26°04' W 080°07'0 0.0
2018-Feb-13 00:30N 26°04' W 080°07'0 0.0
2018-Feb-13 00:00N 26°04' W 080°07'0 0.0
2018-Feb-12 23:30N 26°04' W 080°07'0 0.0
2018-Feb-12 23:00N 26°04' W 080°07'0 0.0
2018-Feb-12 22:30N 26°04' W 080°07'2 4.0
2018-Feb-12 22:00N 26°06' W 080°05'510.7
2018-Feb-12 21:30N 26°02' W 080°01'714.0
2018-Feb-12 21:00N 25°55' W 080°00'714.4
2018-Feb-12 20:30N 25°48' W 080°00'714.3
2018-Feb-12 20:00N 25°41' W 080°00'714.9
2018-Feb-12 19:30N 25°34' W 079°60'714.6
2018-Feb-12 19:00N 25°26' W 079°60'  

Dump ship's entire track history